Time;durP1;ratioP1;P1;durP2;ratioP2;P2;SDS_P1;SDS_P2;PMS_P1;PMS_P2;Temp;Humidity;BMP_temperature;BMP_pressure;BME280_temperature;BME280_humidity;BME280_pressure;Samples;Min_cycle;Max_cycle;Signal;HPM_P1;HPM_P2
2022/08/09 00:02:10;;;;;;;1.20;1.10;;;;;;;;;;5056722;28;20374;-85
2022/08/09 00:04:36;;;;;;;1.40;1.30;;;;;;;;;;5056957;28;20385;-84
2022/08/09 00:07:03;;;;;;;1.80;1.40;;;;;;;;;;5057117;28;20903;-84
2022/08/09 00:09:29;;;;;;;1.77;1.33;;;;;;;;;;5056746;28;20384;-84
2022/08/09 00:11:56;;;;;;;1.40;1.30;;;;;;;;;;5056821;28;20893;-84
2022/08/09 00:14:22;;;;;;;1.70;1.20;;;;;;;;;;5056489;28;20401;-83
2022/08/09 00:16:48;;;;;;;1.43;1.30;;;;;;;;;;5056599;28;20488;-84
2022/08/09 00:19:14;;;;;;;1.60;1.48;;;;;;;;;;5056260;28;20456;-85
2022/08/09 00:21:40;;;;;;;1.30;1.20;;;;;;;;;;5056825;28;20376;-84
2022/08/09 00:24:07;;;;;;;1.85;1.30;;;;;;;;;;5056976;28;20396;-85
2022/08/09 00:26:33;;;;;;;3.10;1.30;;;;;;;;;;5056194;28;20881;-83
2022/08/09 00:29:00;;;;;;;1.38;1.30;;;;;;;;;;5056667;28;20439;-85
2022/08/09 00:31:26;;;;;;;1.75;1.35;;;;;;;;;;5057170;28;20385;-84
2022/08/09 00:33:53;;;;;;;1.70;1.60;;;;;;;;;;5039975;28;20778;-84
2022/08/09 00:36:19;;;;;;;2.30;1.30;;;;;;;;;;5057346;28;21798;-84
2022/08/09 00:38:45;;;;;;;2.22;1.40;;;;;;;;;;5057015;28;20395;-85
2022/08/09 00:41:12;;;;;;;1.83;1.45;;;;;;;;;;5056389;28;20805;-84
2022/08/09 00:43:39;;;;;;;1.65;1.45;;;;;;;;;;5056855;28;20369;-84
2022/08/09 00:46:05;;;;;;;1.92;1.42;;;;;;;;;;5056982;28;20391;-84
2022/08/09 00:48:31;;;;;;;2.00;1.50;;;;;;;;;;5056418;28;20378;-85
2022/08/09 00:51:02;;;;;;;1.88;1.35;;;;;;;;;;5056797;28;20460;-85
2022/08/09 00:53:28;;;;;;;2.35;1.50;;;;;;;;;;5056748;28;20712;-84
2022/08/09 00:55:54;;;;;;;1.70;1.33;;;;;;;;;;5056646;28;20382;-84
2022/08/09 00:58:20;;;;;;;1.63;1.30;;;;;;;;;;5056446;28;20428;-85
2022/08/09 01:00:47;;;;;;;2.87;1.43;;;;;;;;;;5054750;28;20377;-84
2022/08/09 01:03:32;;;;;;;1.58;1.48;;;;;;;;;;5051074;28;20381;-85
2022/08/09 01:05:58;;;;;;;1.48;1.38;;;;;;;;;;5054924;28;20382;-85
2022/08/09 01:08:24;;;;;;;1.30;1.20;;;;;;;;;;5038181;28;20716;-86
2022/08/09 01:10:53;;;;;;;1.60;1.35;;;;;;;;;;5054509;28;20396;-85
2022/08/09 01:13:22;;;;;;;1.50;1.38;;;;;;;;;;5037545;28;20397;-85
2022/08/09 01:15:48;;;;;;;1.60;1.50;;;;;;;;;;5052165;28;20446;-85
2022/08/09 01:18:17;;;;;;;2.00;1.60;;;;;;;;;;5055610;28;20472;-83
2022/08/09 01:20:46;;;;;;;2.05;1.38;;;;;;;;;;5055334;28;20392;-85
2022/08/09 01:23:23;;;;;;;1.70;1.60;;;;;;;;;;5055304;28;20847;-85
2022/08/09 01:25:49;;;;;;;3.25;1.55;;;;;;;;;;5056279;28;20416;-85
2022/08/09 01:28:15;;;;;;;1.88;1.50;;;;;;;;;;5055538;28;20390;-85
2022/08/09 01:30:42;;;;;;;1.60;1.50;;;;;;;;;;5037407;28;20402;-85
2022/08/09 01:33:09;;;;;;;1.75;1.65;;;;;;;;;;5055721;28;20392;-84
2022/08/09 01:35:44;;;;;;;1.85;1.65;;;;;;;;;;5055813;28;20507;-84
2022/08/09 01:38:14;;;;;;;1.70;1.60;;;;;;;;;;5052758;28;20478;-85
2022/08/09 01:40:55;;;;;;;2.67;1.63;;;;;;;;;;5052100;28;20440;-85
2022/08/09 01:43:21;;;;;;;2.28;1.63;;;;;;;;;;5053212;28;20848;-84
2022/08/09 01:45:48;;;;;;;1.87;1.70;;;;;;;;;;5053398;28;20377;-85
2022/08/09 01:48:15;;;;;;;1.80;1.67;;;;;;;;;;5054341;28;20385;-85
2022/08/09 01:50:42;;;;;;;1.80;1.70;;;;;;;;;;5054625;28;20443;-84
2022/08/09 01:53:09;;;;;;;2.25;1.50;;;;;;;;;;5053805;28;20378;-85
2022/08/09 01:55:36;;;;;;;1.98;1.85;;;;;;;;;;5054083;28;20412;-84
2022/08/09 01:58:03;;;;;;;1.80;1.70;;;;;;;;;;5054543;28;20385;-85
2022/08/09 02:00:29;;;;;;;2.20;1.80;;;;;;;;;;5055087;28;20373;-85
2022/08/09 02:02:55;;;;;;;2.35;1.92;;;;;;;;;;5054890;28;20377;-85
2022/08/09 02:05:23;;;;;;;1.73;1.63;;;;;;;;;;5054969;28;20468;-84
2022/08/09 02:08:02;;;;;;;1.70;1.60;;;;;;;;;;5054677;28;20382;-84
2022/08/09 02:10:33;;;;;;;2.63;1.90;;;;;;;;;;5055425;28;20858;-83
2022/08/09 02:13:01;;;;;;;3.30;1.70;;;;;;;;;;5037440;28;20420;-84
2022/08/09 02:15:28;;;;;;;1.80;1.70;;;;;;;;;;5054893;28;20409;-85
2022/08/09 02:17:55;;;;;;;1.80;1.70;;;;;;;;;;5054439;28;20388;-85
2022/08/09 02:20:21;;;;;;;1.70;1.60;;;;;;;;;;5037549;28;20431;-84
2022/08/09 02:22:47;;;;;;;2.17;1.70;;;;;;;;;;5037028;28;20408;-84
2022/08/09 02:25:16;;;;;;;1.80;1.65;;;;;;;;;;5037495;28;20381;-84
2022/08/09 02:27:45;;;;;;;2.35;1.90;;;;;;;;;;5054719;28;20401;-84
2022/08/09 02:30:11;;;;;;;2.17;1.98;;;;;;;;;;5055165;28;20395;-84
2022/08/09 02:32:41;;;;;;;2.60;1.70;;;;;;;;;;5054366;28;20393;-85
2022/08/09 02:35:09;;;;;;;2.35;1.80;;;;;;;;;;5054489;28;20409;-84
2022/08/09 02:37:36;;;;;;;1.90;1.80;;;;;;;;;;5054987;28;20381;-84
2022/08/09 02:40:05;;;;;;;2.77;1.80;;;;;;;;;;5054778;28;20503;-84
2022/08/09 02:42:33;;;;;;;2.17;1.95;;;;;;;;;;5054045;28;20388;-84
2022/08/09 02:45:03;;;;;;;2.05;1.90;;;;;;;;;;5054570;28;20392;-85
2022/08/09 02:47:30;;;;;;;1.98;1.80;;;;;;;;;;5054648;28;20916;-84
2022/08/09 02:49:59;;;;;;;2.25;1.98;;;;;;;;;;5054953;28;20390;-85
2022/08/09 02:52:31;;;;;;;2.00;1.90;;;;;;;;;;5054423;28;20389;-84
2022/08/09 02:54:58;;;;;;;1.77;1.67;;;;;;;;;;5053535;28;20732;-85
2022/08/09 02:57:25;;;;;;;2.20;2.00;;;;;;;;;;5054091;28;20381;-85
2022/08/09 02:59:52;;;;;;;2.03;1.83;;;;;;;;;;5054593;28;20394;-84
2022/08/09 03:02:19;;;;;;;1.92;1.75;;;;;;;;;;5054654;28;20389;-85
2022/08/09 03:04:46;;;;;;;2.47;2.10;;;;;;;;;;5054650;28;20468;-84
2022/08/09 03:07:12;;;;;;;3.85;2.05;;;;;;;;;;5054344;28;20389;-84
2022/08/09 03:09:39;;;;;;;2.00;1.90;;;;;;;;;;5054992;28;20403;-84
2022/08/09 03:12:05;;;;;;;2.22;1.80;;;;;;;;;;5037089;28;20443;-84
2022/08/09 03:14:31;;;;;;;1.80;1.70;;;;;;;;;;5054295;28;20417;-84
2022/08/09 03:16:58;;;;;;;2.90;1.90;;;;;;;;;;5053760;28;20396;-84
2022/08/09 03:19:25;;;;;;;2.20;2.00;;;;;;;;;;5036752;28;20390;-84
2022/08/09 03:21:51;;;;;;;2.25;2.00;;;;;;;;;;5053538;28;20385;-85
2022/08/09 03:24:18;;;;;;;2.00;1.80;;;;;;;;;;5036692;28;20853;-84
2022/08/09 03:26:44;;;;;;;2.10;1.90;;;;;;;;;;5053525;28;20397;-84
2022/08/09 03:29:11;;;;;;;2.00;1.90;;;;;;;;;;5053301;28;20465;-85
2022/08/09 03:31:39;;;;;;;2.65;1.95;;;;;;;;;;5055915;28;20373;-84
2022/08/09 03:34:06;;;;;;;2.10;2.00;;;;;;;;;;5057420;28;20435;-83
2022/08/09 03:36:32;;;;;;;2.22;2.00;;;;;;;;;;5058029;28;20386;-84
2022/08/09 03:38:58;;;;;;;2.35;1.80;;;;;;;;;;5058065;28;20924;-85
2022/08/09 03:41:24;;;;;;;2.30;2.10;;;;;;;;;;5057690;28;20393;-84
2022/08/09 03:43:50;;;;;;;2.22;2.00;;;;;;;;;;5057970;28;20405;-85
2022/08/09 03:46:16;;;;;;;1.90;1.70;;;;;;;;;;5057197;28;20381;-84
2022/08/09 03:48:44;;;;;;;2.10;1.90;;;;;;;;;;5058359;28;20380;-85
2022/08/09 03:51:10;;;;;;;2.20;1.98;;;;;;;;;;5058103;28;20446;-84
2022/08/09 03:53:37;;;;;;;2.30;2.10;;;;;;;;;;5057441;28;20471;-84
2022/08/09 03:56:04;;;;;;;2.27;2.00;;;;;;;;;;5057449;28;20385;-84
2022/08/09 03:58:31;;;;;;;2.10;1.90;;;;;;;;;;5057531;28;20406;-84
2022/08/09 04:00:57;;;;;;;2.15;2.05;;;;;;;;;;5057742;28;20393;-84
2022/08/09 04:03:23;;;;;;;2.42;1.80;;;;;;;;;;5040497;28;20736;-84
2022/08/09 04:05:49;;;;;;;1.92;1.80;;;;;;;;;;5055103;28;20753;-84
2022/08/09 04:08:15;;;;;;;2.20;2.10;;;;;;;;;;5050630;28;20387;-83
2022/08/09 04:10:41;;;;;;;2.45;2.25;;;;;;;;;;5037159;28;20944;-84
2022/08/09 04:13:10;;;;;;;2.20;2.00;;;;;;;;;;5050076;28;20393;-83
2022/08/09 04:15:37;;;;;;;2.38;2.17;;;;;;;;;;5056165;28;20412;-84
2022/08/09 04:18:04;;;;;;;2.25;2.05;;;;;;;;;;5056122;28;20392;-84
2022/08/09 04:20:30;;;;;;;2.83;2.15;;;;;;;;;;5054554;28;20385;-84
2022/08/09 04:22:57;;;;;;;2.50;2.20;;;;;;;;;;5055197;28;20379;-84
2022/08/09 04:25:23;;;;;;;2.17;2.08;;;;;;;;;;5037145;28;20757;-84
2022/08/09 04:27:49;;;;;;;2.88;2.50;;;;;;;;;;5054826;28;20403;-84
2022/08/09 04:30:18;;;;;;;2.25;2.05;;;;;;;;;;5054715;28;20416;-84
2022/08/09 04:32:44;;;;;;;3.40;2.30;;;;;;;;;;5056066;28;20381;-84
2022/08/09 04:35:11;;;;;;;3.30;2.40;;;;;;;;;;5052472;28;20414;-85
2022/08/09 04:37:38;;;;;;;2.45;2.25;;;;;;;;;;5039772;28;20389;-84
2022/08/09 04:40:04;;;;;;;2.75;2.30;;;;;;;;;;5036894;28;20783;-83
2022/08/09 04:42:31;;;;;;;4.07;2.50;;;;;;;;;;5049487;28;20401;-85
2022/08/09 04:44:57;;;;;;;2.93;2.40;;;;;;;;;;5051221;28;20881;-84
2022/08/09 04:47:24;;;;;;;2.50;2.30;;;;;;;;;;5054702;28;20393;-84
2022/08/09 04:49:51;;;;;;;2.38;2.20;;;;;;;;;;5051249;28;20886;-85
2022/08/09 04:52:17;;;;;;;3.00;2.45;;;;;;;;;;5052195;28;20413;-80
2022/08/09 04:54:43;;;;;;;2.78;2.45;;;;;;;;;;5055022;28;20409;-80
2022/08/09 04:57:10;;;;;;;2.90;2.60;;;;;;;;;;5053931;28;20396;-80
2022/08/09 04:59:36;;;;;;;2.75;2.33;;;;;;;;;;5054183;28;20373;-80
2022/08/09 05:02:02;;;;;;;2.30;2.10;;;;;;;;;;5054184;28;20468;-82
2022/08/09 05:04:28;;;;;;;2.20;2.10;;;;;;;;;;5053239;28;20788;-80
2022/08/09 05:06:54;;;;;;;2.30;2.10;;;;;;;;;;5053635;28;20389;-79
2022/08/09 05:09:20;;;;;;;2.95;2.13;;;;;;;;;;5053273;28;20393;-79
2022/08/09 05:11:46;;;;;;;4.05;2.10;;;;;;;;;;5053896;28;21087;-79
2022/08/09 05:14:12;;;;;;;3.38;2.20;;;;;;;;;;5035933;28;20409;-80
2022/08/09 05:16:38;;;;;;;2.17;1.90;;;;;;;;;;5053774;28;20924;-80
2022/08/09 05:19:04;;;;;;;2.50;2.30;;;;;;;;;;5053332;28;20377;-79
2022/08/09 05:21:31;;;;;;;4.00;1.80;;;;;;;;;;5053795;28;20389;-80
2022/08/09 05:23:57;;;;;;;2.50;2.30;;;;;;;;;;5053387;28;20450;-80
2022/08/09 05:26:23;;;;;;;2.50;2.28;;;;;;;;;;5053445;28;20708;-80
2022/08/09 05:28:49;;;;;;;2.25;2.05;;;;;;;;;;5052854;28;20878;-80
2022/08/09 05:31:15;;;;;;;2.83;2.20;;;;;;;;;;5053633;28;20464;-80
2022/08/09 05:33:41;;;;;;;2.40;2.20;;;;;;;;;;5053421;28;20874;-80
2022/08/09 05:36:07;;;;;;;3.00;2.20;;;;;;;;;;5053643;28;20409;-80
2022/08/09 05:38:33;;;;;;;2.33;2.03;;;;;;;;;;5053497;28;20380;-80
2022/08/09 05:40:59;;;;;;;2.53;2.15;;;;;;;;;;5053374;28;20365;-80
2022/08/09 05:43:25;;;;;;;2.55;2.28;;;;;;;;;;5053126;28;20374;-80
2022/08/09 05:45:51;;;;;;;2.20;2.10;;;;;;;;;;5051142;28;20385;-80
2022/08/09 05:48:17;;;;;;;2.40;2.20;;;;;;;;;;5049347;28;20390;-80
2022/08/09 05:50:43;;;;;;;2.20;2.00;;;;;;;;;;5052825;28;20421;-80
2022/08/09 05:53:10;;;;;;;2.60;2.15;;;;;;;;;;5051857;28;20878;-80
2022/08/09 05:55:36;;;;;;;2.30;2.10;;;;;;;;;;5052529;28;20500;-80
2022/08/09 05:58:02;;;;;;;2.05;1.70;;;;;;;;;;5052069;28;20504;-82
2022/08/09 06:00:29;;;;;;;3.30;2.30;;;;;;;;;;5050941;28;20396;-80
2022/08/09 06:02:58;;;;;;;2.90;2.00;;;;;;;;;;5052568;28;20381;-80
2022/08/09 06:05:25;;;;;;;3.03;2.38;;;;;;;;;;5052301;28;20384;-81
2022/08/09 06:07:51;;;;;;;1.80;1.70;;;;;;;;;;5052607;28;20377;-81
2022/08/09 06:10:17;;;;;;;2.05;1.85;;;;;;;;;;5052837;28;20435;-81
2022/08/09 06:12:43;;;;;;;3.20;2.10;;;;;;;;;;5053071;28;20389;-82
2022/08/09 06:15:09;;;;;;;2.20;2.00;;;;;;;;;;5052715;28;20420;-81
2022/08/09 06:17:35;;;;;;;2.05;1.75;;;;;;;;;;5051689;28;20469;-81
2022/08/09 06:20:01;;;;;;;1.80;1.70;;;;;;;;;;5050082;28;20428;-81
2022/08/09 06:22:27;;;;;;;2.00;1.90;;;;;;;;;;5051337;28;20454;-83
2022/08/09 06:24:53;;;;;;;1.75;1.65;;;;;;;;;;5052370;28;20699;-84
2022/08/09 06:27:19;;;;;;;2.70;2.00;;;;;;;;;;5051736;28;20413;-84
2022/08/09 06:29:45;;;;;;;2.60;1.90;;;;;;;;;;5052008;28;20385;-83
2022/08/09 06:32:11;;;;;;;2.43;1.77;;;;;;;;;;5047034;28;20385;-83
2022/08/09 06:34:37;;;;;;;2.13;1.90;;;;;;;;;;5049611;28;20427;-82
2022/08/09 06:37:04;;;;;;;2.10;1.83;;;;;;;;;;5052014;28;20374;-82
2022/08/09 06:39:31;;;;;;;2.83;1.73;;;;;;;;;;5052357;28;20464;-82
2022/08/09 06:41:57;;;;;;;3.28;1.90;;;;;;;;;;5052324;28;20381;-82
2022/08/09 06:44:23;;;;;;;2.88;1.90;;;;;;;;;;5052308;28;20791;-82
2022/08/09 06:46:50;;;;;;;2.20;2.00;;;;;;;;;;5052213;28;20424;-82
2022/08/09 06:49:16;;;;;;;2.83;1.65;;;;;;;;;;5052331;28;20476;-82
2022/08/09 06:51:42;;;;;;;2.58;1.90;;;;;;;;;;5052253;28;20385;-81
2022/08/09 06:54:08;;;;;;;2.05;1.90;;;;;;;;;;5052208;28;20475;-82
2022/08/09 06:56:34;;;;;;;3.08;2.00;;;;;;;;;;5052064;28;20735;-82
2022/08/09 06:59:00;;;;;;;2.53;1.90;;;;;;;;;;5052081;28;20374;-83
2022/08/09 07:01:26;;;;;;;1.70;1.60;;;;;;;;;;5051625;28;20385;-82
2022/08/09 07:03:52;;;;;;;1.80;1.70;;;;;;;;;;5051871;28;20377;-81
2022/08/09 07:06:18;;;;;;;1.83;1.63;;;;;;;;;;5051494;28;20789;-83
2022/08/09 07:08:44;;;;;;;3.10;1.60;;;;;;;;;;5052035;28;20413;-82
2022/08/09 07:11:10;;;;;;;2.05;1.75;;;;;;;;;;5051891;28;20909;-83
2022/08/09 07:13:36;;;;;;;1.80;1.50;;;;;;;;;;5048973;28;20468;-83
2022/08/09 07:16:02;;;;;;;2.30;1.55;;;;;;;;;;5032638;28;20401;-82
2022/08/09 07:18:28;;;;;;;3.95;1.77;;;;;;;;;;5050924;28;20373;-82
2022/08/09 07:20:54;;;;;;;2.63;1.80;;;;;;;;;;5051700;28;20878;-83
2022/08/09 07:23:20;;;;;;;1.50;1.40;;;;;;;;;;5051886;28;20385;-83
2022/08/09 07:25:47;;;;;;;1.52;1.42;;;;;;;;;;5051798;28;20393;-82
2022/08/09 07:28:13;;;;;;;2.22;1.58;;;;;;;;;;5051843;28;20428;-82
2022/08/09 07:30:39;;;;;;;2.45;1.50;;;;;;;;;;5051877;28;20409;-82
2022/08/09 07:33:05;;;;;;;3.60;1.50;;;;;;;;;;5051875;28;20816;-82
2022/08/09 07:35:31;;;;;;;2.00;1.50;;;;;;;;;;5051896;28;20412;-81
2022/08/09 07:37:57;;;;;;;1.92;1.50;;;;;;;;;;5052066;28;20417;-82
2022/08/09 07:40:23;;;;;;;1.70;1.60;;;;;;;;;;5051894;28;20846;-82
2022/08/09 07:42:49;;;;;;;2.00;1.50;;;;;;;;;;5051747;28;20427;-82
2022/08/09 07:45:15;;;;;;;3.03;1.50;;;;;;;;;;5051906;28;20526;-82
2022/08/09 07:47:41;;;;;;;1.50;1.30;;;;;;;;;;5051750;28;20409;-82
2022/08/09 07:50:07;;;;;;;2.60;1.60;;;;;;;;;;5052073;28;20381;-82
2022/08/09 07:52:33;;;;;;;2.00;1.63;;;;;;;;;;5051511;28;20415;-82
2022/08/09 07:54:59;;;;;;;1.70;1.60;;;;;;;;;;5051679;28;20401;-82
2022/08/09 07:57:25;;;;;;;2.35;1.60;;;;;;;;;;5051709;28;20390;-83
2022/08/09 07:59:51;;;;;;;2.58;1.50;;;;;;;;;;5051712;28;20385;-82
2022/08/09 08:02:17;;;;;;;2.47;1.40;;;;;;;;;;5051702;28;20389;-82
2022/08/09 08:04:43;;;;;;;1.90;1.30;;;;;;;;;;5051573;28;20416;-81
2022/08/09 08:07:09;;;;;;;1.98;1.20;;;;;;;;;;5050375;28;20455;-80
2022/08/09 08:09:35;;;;;;;1.50;1.40;;;;;;;;;;5051691;28;20445;-82
2022/08/09 08:12:01;;;;;;;2.90;1.38;;;;;;;;;;5051882;28;20393;-81
2022/08/09 08:14:27;;;;;;;1.77;1.35;;;;;;;;;;5051468;28;20436;-82
2022/08/09 08:16:53;;;;;;;3.30;1.30;;;;;;;;;;5053008;28;20491;-82
2022/08/09 08:19:19;;;;;;;1.50;1.40;;;;;;;;;;5055242;28;20759;-82
2022/08/09 08:21:45;;;;;;;1.85;1.40;;;;;;;;;;5055086;28;20382;-81
2022/08/09 08:24:11;;;;;;;2.65;1.25;;;;;;;;;;5055109;28;20411;-82
2022/08/09 08:26:37;;;;;;;2.42;1.30;;;;;;;;;;5054752;28;20397;-82
2022/08/09 08:29:03;;;;;;;2.28;1.40;;;;;;;;;;5054991;28;20385;-82
2022/08/09 08:31:29;;;;;;;4.80;1.40;;;;;;;;;;5055032;28;20468;-81
2022/08/09 08:33:55;;;;;;;2.35;1.40;;;;;;;;;;5054997;28;20943;-81
2022/08/09 08:36:21;;;;;;;3.05;1.38;;;;;;;;;;5054774;28;20385;-83
2022/08/09 08:38:47;;;;;;;1.55;1.15;;;;;;;;;;5054808;28;20388;-82
2022/08/09 08:41:13;;;;;;;1.95;1.00;;;;;;;;;;5055130;28;20448;-82
2022/08/09 08:43:40;;;;;;;1.20;1.20;;;;;;;;;;5054825;28;20842;-82
2022/08/09 08:46:08;;;;;;;2.05;1.40;;;;;;;;;;5054890;28;20439;-82
2022/08/09 08:48:34;;;;;;;1.58;1.30;;;;;;;;;;5054685;28;20381;-82
2022/08/09 08:51:02;;;;;;;1.25;1.15;;;;;;;;;;5054583;28;20374;-82
2022/08/09 08:53:28;;;;;;;1.42;1.30;;;;;;;;;;5054622;28;20381;-82
2022/08/09 08:55:54;;;;;;;1.75;1.38;;;;;;;;;;5054441;28;20401;-83
2022/08/09 08:58:20;;;;;;;2.38;1.17;;;;;;;;;;5035911;28;20762;-83
2022/08/09 09:00:46;;;;;;;2.20;1.17;;;;;;;;;;5054606;28;20403;-83
2022/08/09 09:03:15;;;;;;;1.20;1.08;;;;;;;;;;5054312;28;20377;-83
2022/08/09 09:05:41;;;;;;;1.58;1.27;;;;;;;;;;5054499;28;20469;-81
2022/08/09 09:08:07;;;;;;;1.48;1.38;;;;;;;;;;5054301;28;20385;-82
2022/08/09 09:10:34;;;;;;;2.90;1.52;;;;;;;;;;5054469;28;20917;-82
2022/08/09 09:13:01;;;;;;;1.52;1.30;;;;;;;;;;5054385;28;20461;-82
2022/08/09 09:15:27;;;;;;;1.45;1.15;;;;;;;;;;5053534;28;20405;-82
2022/08/09 09:17:53;;;;;;;3.30;1.48;;;;;;;;;;5054077;28;20412;-82
2022/08/09 09:20:20;;;;;;;2.20;1.40;;;;;;;;;;5054065;28;20397;-82
2022/08/09 09:22:54;;;;;;;2.45;1.30;;;;;;;;;;5054183;28;20447;-83
2022/08/09 09:25:37;;;;;;;1.40;1.30;;;;;;;;;;5053534;28;20462;-83
2022/08/09 09:28:05;;;;;;;1.92;1.10;;;;;;;;;;5044901;28;20405;-82
2022/08/09 09:30:31;;;;;;;3.13;1.40;;;;;;;;;;5053706;28;20393;-82
2022/08/09 09:33:05;;;;;;;1.98;1.10;;;;;;;;;;5053779;28;20412;-82
2022/08/09 09:35:31;;;;;;;1.70;1.30;;;;;;;;;;5053982;28;20404;-80
2022/08/09 09:37:58;;;;;;;2.50;1.15;;;;;;;;;;5053488;28;20382;-80
2022/08/09 09:40:43;;;;;;;2.38;1.30;;;;;;;;;;5043747;28;20489;-81
2022/08/09 09:43:13;;;;;;;3.58;1.20;;;;;;;;;;5036254;28;20919;-81
2022/08/09 09:45:52;;;;;;;1.60;1.30;;;;;;;;;;5036804;28;20757;-81
2022/08/09 09:48:19;;;;;;;2.83;1.17;;;;;;;;;;5047730;28;20465;-80
2022/08/09 09:50:46;;;;;;;1.80;1.30;;;;;;;;;;5048819;28;20519;-81
2022/08/09 09:53:17;;;;;;;2.35;1.20;;;;;;;;;;5045625;28;20465;-81
2022/08/09 09:56:01;;;;;;;1.13;0.98;;;;;;;;;;5044413;28;20405;-81
2022/08/09 09:58:46;;;;;;;1.90;1.00;;;;;;;;;;5044684;28;20389;-80
2022/08/09 10:01:22;;;;;;;1.47;1.10;;;;;;;;;;5053097;28;20431;-79
2022/08/09 10:03:49;;;;;;;1.65;1.20;;;;;;;;;;5052931;28;20409;-81
2022/08/09 10:06:15;;;;;;;1.98;1.27;;;;;;;;;;5053014;28;20473;-82
2022/08/09 10:08:42;;;;;;;2.00;1.23;;;;;;;;;;5034518;28;20912;-81
2022/08/09 10:11:17;;;;;;;1.33;1.23;;;;;;;;;;5052931;28;20411;-81
2022/08/09 10:13:44;;;;;;;1.75;1.10;;;;;;;;;;5052913;28;20377;-81
2022/08/09 10:16:10;;;;;;;2.28;1.20;;;;;;;;;;5030610;28;20407;-82
2022/08/09 10:18:37;;;;;;;1.38;1.00;;;;;;;;;;5050691;28;20480;-81
2022/08/09 10:21:09;;;;;;;1.77;1.30;;;;;;;;;;5043646;28;20389;-83
2022/08/09 10:23:36;;;;;;;2.60;1.10;;;;;;;;;;5041150;28;20878;-82
2022/08/09 10:26:02;;;;;;;2.20;1.10;;;;;;;;;;5041511;28;20453;-81
2022/08/09 10:28:29;;;;;;;1.23;1.08;;;;;;;;;;5052255;28;20460;-84
2022/08/09 10:30:56;;;;;;;1.65;1.20;;;;;;;;;;5054656;28;20380;-82
2022/08/09 10:33:23;;;;;;;2.25;1.05;;;;;;;;;;5053367;28;20530;-81
2022/08/09 10:35:49;;;;;;;2.40;1.20;;;;;;;;;;5052563;28;20455;-80
2022/08/09 10:38:16;;;;;;;3.10;1.20;;;;;;;;;;5052355;28;20385;-81
2022/08/09 10:40:43;;;;;;;2.00;1.05;;;;;;;;;;5051867;28;20381;-81
2022/08/09 10:43:09;;;;;;;1.38;1.20;;;;;;;;;;5052274;28;20416;-80
2022/08/09 10:45:37;;;;;;;1.60;1.17;;;;;;;;;;5052375;28;20385;-79
2022/08/09 10:48:10;;;;;;;2.78;1.20;;;;;;;;;;5052520;28;20386;-80
2022/08/09 10:51:05;;;;;;;2.10;1.20;;;;;;;;;;5052282;28;20378;-80
2022/08/09 10:53:40;;;;;;;1.20;1.00;;;;;;;;;;5052017;28;20390;-79
2022/08/09 10:56:18;;;;;;;1.40;1.00;;;;;;;;;;5052089;28;20405;-79
2022/08/09 10:58:45;;;;;;;1.80;0.98;;;;;;;;;;5034447;28;20459;-79
2022/08/09 11:01:29;;;;;;;1.90;1.10;;;;;;;;;;5052176;28;20427;-79
2022/08/09 11:04:13;;;;;;;1.45;1.00;;;;;;;;;;5052133;28;20381;-79
2022/08/09 11:06:40;;;;;;;1.27;1.17;;;;;;;;;;5052086;28;20377;-78
2022/08/09 11:09:07;;;;;;;1.20;1.00;;;;;;;;;;5051915;28;20381;-81
2022/08/09 11:11:52;;;;;;;1.50;1.10;;;;;;;;;;5052061;28;20416;-81
2022/08/09 11:14:30;;;;;;;2.50;1.33;;;;;;;;;;5052010;28;20401;-82
2022/08/09 11:16:57;;;;;;;1.70;1.00;;;;;;;;;;5052132;28;20385;-81
2022/08/09 11:19:41;;;;;;;2.50;1.02;;;;;;;;;;5051941;28;20843;-82
2022/08/09 11:22:07;;;;;;;2.10;0.93;;;;;;;;;;5051555;28;20457;-81
2022/08/09 11:24:52;;;;;;;1.23;0.90;;;;;;;;;;5051559;28;20476;-81
2022/08/09 11:27:27;;;;;;;0.90;0.88;;;;;;;;;;5051692;28;20397;-81
2022/08/09 11:29:54;;;;;;;1.53;1.00;;;;;;;;;;5044602;28;20389;-80
2022/08/09 11:32:42;;;;;;;1.00;0.90;;;;;;;;;;5051745;28;20413;-80
2022/08/09 11:35:13;;;;;;;1.23;0.90;;;;;;;;;;5051682;28;20440;-80
2022/08/09 11:37:40;;;;;;;2.00;0.85;;;;;;;;;;5051595;28;21032;-80
2022/08/09 11:40:07;;;;;;;0.90;0.80;;;;;;;;;;5051193;28;20366;-81
2022/08/09 11:42:37;;;;;;;1.75;1.08;;;;;;;;;;5051767;28;20374;-80
2022/08/09 11:45:04;;;;;;;1.20;1.08;;;;;;;;;;5051898;28;20381;-80
2022/08/09 11:47:46;;;;;;;2.20;1.10;;;;;;;;;;5051715;28;20434;-80
2022/08/09 11:50:12;;;;;;;1.13;1.00;;;;;;;;;;5051756;28;20381;-80
2022/08/09 11:52:57;;;;;;;1.77;1.07;;;;;;;;;;5054355;28;20381;-80
2022/08/09 11:55:36;;;;;;;1.17;1.00;;;;;;;;;;5037474;28;20409;-81
2022/08/09 11:58:04;;;;;;;1.70;1.03;;;;;;;;;;5055465;28;20782;-81
2022/08/09 12:00:31;;;;;;;1.30;0.80;;;;;;;;;;5055655;28;20373;-80
2022/08/09 12:02:58;;;;;;;2.25;0.95;;;;;;;;;;5055377;28;20381;-81
2022/08/09 12:05:31;;;;;;;2.90;1.10;;;;;;;;;;5055481;28;20385;-80
2022/08/09 12:07:58;;;;;;;1.95;1.20;;;;;;;;;;5055372;28;20381;-81
2022/08/09 12:10:24;;;;;;;1.30;1.10;;;;;;;;;;5055155;28;20381;-81
2022/08/09 12:12:50;;;;;;;1.88;0.98;;;;;;;;;;5055624;28;20442;-81
2022/08/09 12:15:21;;;;;;;2.10;1.00;;;;;;;;;;5055349;28;20404;-81
2022/08/09 12:17:47;;;;;;;1.40;0.90;;;;;;;;;;5055219;28;20884;-81
2022/08/09 12:20:13;;;;;;;1.13;0.98;;;;;;;;;;5055176;28;20382;-80
2022/08/09 12:22:39;;;;;;;1.20;1.00;;;;;;;;;;5055091;28;20787;-80
2022/08/09 12:25:12;;;;;;;1.15;0.90;;;;;;;;;;5054993;28;20388;-80
2022/08/09 12:27:39;;;;;;;1.83;1.10;;;;;;;;;;5054633;28;20437;-81
2022/08/09 12:30:06;;;;;;;1.07;0.97;;;;;;;;;;5054899;28;20763;-79
2022/08/09 12:32:32;;;;;;;1.20;1.00;;;;;;;;;;5054900;28;20386;-80
2022/08/09 12:35:02;;;;;;;0.80;0.80;;;;;;;;;;5054752;28;20398;-80
2022/08/09 12:37:35;;;;;;;2.40;0.98;;;;;;;;;;5054742;28;20420;-80
2022/08/09 12:40:04;;;;;;;2.08;0.90;;;;;;;;;;5037182;28;20754;-81
2022/08/09 12:42:30;;;;;;;2.63;0.80;;;;;;;;;;5054803;28;20789;-80
2022/08/09 12:44:56;;;;;;;1.70;1.00;;;;;;;;;;5037159;28;20408;-80
2022/08/09 12:47:22;;;;;;;0.90;0.90;;;;;;;;;;5054624;28;20895;-81
2022/08/09 12:50:16;;;;;;;0.90;0.90;;;;;;;;;;5053804;28;20393;-81
2022/08/09 12:52:42;;;;;;;1.10;1.00;;;;;;;;;;5052055;28;20762;-80
2022/08/09 12:55:11;;;;;;;0.80;0.80;;;;;;;;;;5053492;28;20440;-81
2022/08/09 12:57:41;;;;;;;1.77;1.00;;;;;;;;;;5035492;28;20758;-81
2022/08/09 13:00:33;;;;;;;1.50;1.00;;;;;;;;;;5054352;28;20377;-80
2022/08/09 13:03:00;;;;;;;2.50;1.03;;;;;;;;;;5053963;28;20393;-80
2022/08/09 13:05:27;;;;;;;1.40;1.02;;;;;;;;;;5053811;28;20427;-81
2022/08/09 13:08:13;;;;;;;1.60;1.00;;;;;;;;;;5053923;28;20412;-80
2022/08/09 13:10:46;;;;;;;1.10;1.00;;;;;;;;;;5054279;28;20389;-80
2022/08/09 13:13:13;;;;;;;1.70;0.90;;;;;;;;;;5054182;28;20434;-81
2022/08/09 13:15:52;;;;;;;2.03;1.00;;;;;;;;;;5053757;28;20834;-81
2022/08/09 13:18:19;;;;;;;3.00;1.00;;;;;;;;;;5047746;28;20405;-80
2022/08/09 13:20:45;;;;;;;2.17;0.90;;;;;;;;;;5052943;28;20384;-81
2022/08/09 13:23:11;;;;;;;1.40;1.02;;;;;;;;;;5049857;28;20382;-81
2022/08/09 13:25:45;;;;;;;1.50;0.90;;;;;;;;;;5034176;28;20810;-81
2022/08/09 13:28:14;;;;;;;1.63;1.05;;;;;;;;;;5050404;28;20476;-81
2022/08/09 13:30:41;;;;;;;1.55;0.85;;;;;;;;;;5051844;28;20388;-81
2022/08/09 13:33:07;;;;;;;1.10;0.90;;;;;;;;;;5053076;28;20492;-81
2022/08/09 13:35:33;;;;;;;1.75;0.90;;;;;;;;;;5053492;28;20413;-80
2022/08/09 13:37:59;;;;;;;2.55;1.08;;;;;;;;;;5052032;28;20377;-81
2022/08/09 13:40:25;;;;;;;1.55;1.00;;;;;;;;;;5053098;28;20384;-80
2022/08/09 13:42:52;;;;;;;0.77;0.70;;;;;;;;;;5053061;28;20382;-81
2022/08/09 13:45:18;;;;;;;2.10;0.90;;;;;;;;;;5053089;28;20391;-81
2022/08/09 13:47:44;;;;;;;3.65;1.00;;;;;;;;;;5052518;28;20390;-81
2022/08/09 13:50:12;;;;;;;3.65;0.90;;;;;;;;;;5053408;28;20381;-81
2022/08/09 13:52:38;;;;;;;1.55;0.98;;;;;;;;;;5035665;28;20866;-80
2022/08/09 13:55:04;;;;;;;1.30;0.80;;;;;;;;;;5053548;28;20413;-80
2022/08/09 13:57:32;;;;;;;0.77;0.70;;;;;;;;;;5053381;28;20373;-80
2022/08/09 13:59:58;;;;;;;3.50;0.80;;;;;;;;;;5053497;28;20695;-80
2022/08/09 14:02:24;;;;;;;1.80;1.00;;;;;;;;;;5053161;28;20883;-80
2022/08/09 14:04:50;;;;;;;1.30;0.90;;;;;;;;;;5053173;28;20435;-80
2022/08/09 14:07:16;;;;;;;2.72;1.00;;;;;;;;;;5053008;28;20381;-81
2022/08/09 14:09:42;;;;;;;3.20;1.00;;;;;;;;;;5035394;28;20920;-79
2022/08/09 14:12:08;;;;;;;1.70;1.00;;;;;;;;;;5052941;28;20389;-81
2022/08/09 14:14:34;;;;;;;0.90;0.90;;;;;;;;;;5052144;28;20413;-81
2022/08/09 14:17:00;;;;;;;2.20;1.10;;;;;;;;;;5052709;28;20435;-81
2022/08/09 14:19:26;;;;;;;1.08;0.70;;;;;;;;;;5052936;28;20916;-81
2022/08/09 14:21:52;;;;;;;1.27;0.70;;;;;;;;;;5051865;28;20859;-79
2022/08/09 14:24:18;;;;;;;2.03;0.93;;;;;;;;;;5049953;28;20393;-79
2022/08/09 14:26:45;;;;;;;1.00;0.73;;;;;;;;;;5043441;28;20413;-80
2022/08/09 14:29:13;;;;;;;2.10;0.90;;;;;;;;;;5047752;28;20944;-80
2022/08/09 14:31:39;;;;;;;0.93;0.80;;;;;;;;;;5051679;28;20385;-79
2022/08/09 14:34:05;;;;;;;2.10;1.00;;;;;;;;;;5049925;28;20451;-78
2022/08/09 14:36:31;;;;;;;1.83;1.00;;;;;;;;;;5051979;28;20381;-79
2022/08/09 14:38:57;;;;;;;1.45;0.70;;;;;;;;;;5040787;28;20855;-79
2022/08/09 14:41:23;;;;;;;1.38;0.80;;;;;;;;;;5034508;28;20791;-79
2022/08/09 14:43:50;;;;;;;1.15;1.00;;;;;;;;;;5052402;28;20424;-79
2022/08/09 14:46:16;;;;;;;1.30;1.10;;;;;;;;;;5049718;28;20807;-79
2022/08/09 14:48:42;;;;;;;2.70;0.90;;;;;;;;;;5049651;28;20437;-79